Time;durP1;ratioP1;P1;durP2;ratioP2;P2;SDS_P1;SDS_P2;PMS_P1;PMS_P2;Temp;Humidity;BMP_temperature;BMP_pressure;BME280_temperature;BME280_humidity;BME280_pressure;Samples;Min_cycle;Max_cycle;Signal;HPM_P1;HPM_P2
2023/07/20 00:01:12;;;;;;;8.00;7.40;;;;;;;;;;10246632;28;20057;-67
2023/07/20 00:06:08;;;;;;;6.90;6.30;;;;;;;;;;10256134;28;20064;-67
2023/07/20 00:11:04;;;;;;;7.13;6.63;;;;;;;;;;10252695;28;20716;-68
2023/07/20 00:16:00;;;;;;;6.93;6.43;;;;;;;;;;10251457;28;20060;-67
2023/07/20 00:21:01;;;;;;;7.47;6.88;;;;;;;;;;10262495;28;20041;-67
2023/07/20 00:25:58;;;;;;;7.75;7.15;;;;;;;;;;10253603;28;20523;-67
2023/07/20 00:30:54;;;;;;;7.85;6.57;;;;;;;;;;10252169;28;20080;-67
2023/07/20 00:35:51;;;;;;;6.82;6.22;;;;;;;;;;10262544;28;20045;-67
2023/07/20 00:40:48;;;;;;;6.70;6.20;;;;;;;;;;10245975;28;20045;-67
2023/07/20 00:45:44;;;;;;;7.90;7.30;;;;;;;;;;10255761;28;20099;-68
2023/07/20 00:50:41;;;;;;;7.57;6.97;;;;;;;;;;10261564;28;20409;-67
2023/07/20 00:55:37;;;;;;;7.45;6.85;;;;;;;;;;10259767;28;20128;-69
2023/07/20 01:00:34;;;;;;;9.43;7.97;;;;;;;;;;10231605;28;20467;-67
2023/07/20 01:05:35;;;;;;;8.23;7.53;;;;;;;;;;10247588;28;20052;-69
2023/07/20 01:10:36;;;;;;;8.70;7.95;;;;;;;;;;10247086;28;20487;-67
2023/07/20 01:15:35;;;;;;;9.60;8.70;;;;;;;;;;10256908;28;20116;-68
2023/07/20 01:20:33;;;;;;;9.15;8.45;;;;;;;;;;10261616;28;20420;-68
2023/07/20 01:25:48;;;;;;;10.15;9.40;;;;;;;;;;10251473;28;20516;-69
2023/07/20 01:30:50;;;;;;;10.80;9.80;;;;;;;;;;10263467;28;20102;-69
2023/07/20 01:35:48;;;;;;;10.23;9.52;;;;;;;;;;10266016;28;20652;-68
2023/07/20 01:40:44;;;;;;;10.98;10.18;;;;;;;;;;10254335;28;20060;-67
2023/07/20 01:45:41;;;;;;;10.90;10.00;;;;;;;;;;10260523;28;20049;-68
2023/07/20 01:50:37;;;;;;;11.57;10.70;;;;;;;;;;10258122;28;20124;-68
2023/07/20 01:55:33;;;;;;;10.98;10.05;;;;;;;;;;10257493;28;20053;-68
2023/07/20 02:00:30;;;;;;;11.63;10.77;;;;;;;;;;10267245;28;20496;-69
2023/07/20 02:05:26;;;;;;;12.50;11.60;;;;;;;;;;10251257;28;20081;-70
2023/07/20 02:10:23;;;;;;;12.35;11.20;;;;;;;;;;10257444;28;20516;-71
2023/07/20 02:15:19;;;;;;;13.27;12.18;;;;;;;;;;10247700;28;20501;-70
2023/07/20 02:20:15;;;;;;;14.05;12.95;;;;;;;;;;10261933;28;20064;-69
2023/07/20 02:25:12;;;;;;;12.93;11.85;;;;;;;;;;10253606;28;20065;-68
2023/07/20 02:30:09;;;;;;;12.68;11.77;;;;;;;;;;10254144;28;20104;-68
2023/07/20 02:35:06;;;;;;;12.82;11.98;;;;;;;;;;10257990;28;20428;-68
2023/07/20 02:40:04;;;;;;;13.60;12.70;;;;;;;;;;10257755;28;20064;-69
2023/07/20 02:45:01;;;;;;;12.52;11.52;;;;;;;;;;10263800;28;20057;-69
2023/07/20 02:49:57;;;;;;;13.20;11.93;;;;;;;;;;10245780;28;20420;-67
2023/07/20 02:54:53;;;;;;;13.60;12.70;;;;;;;;;;10249358;28;20052;-67
2023/07/20 02:59:50;;;;;;;12.65;11.82;;;;;;;;;;10254749;28;20076;-68
2023/07/20 03:04:46;;;;;;;13.32;12.32;;;;;;;;;;10258574;28;20037;-67
2023/07/20 03:09:43;;;;;;;13.23;12.32;;;;;;;;;;10265652;28;20459;-67
2023/07/20 03:14:39;;;;;;;14.20;13.05;;;;;;;;;;10257608;28;20056;-69
2023/07/20 03:19:36;;;;;;;12.57;11.70;;;;;;;;;;10260374;28;20061;-66
2023/07/20 03:24:32;;;;;;;11.23;10.43;;;;;;;;;;10255271;28;20049;-66
2023/07/20 03:29:31;;;;;;;13.02;11.77;;;;;;;;;;10255282;28;20479;-67
2023/07/20 03:34:27;;;;;;;13.02;12.18;;;;;;;;;;10254769;28;20655;-66
2023/07/20 03:39:24;;;;;;;13.63;12.63;;;;;;;;;;10247136;28;20100;-68
2023/07/20 03:44:20;;;;;;;14.43;13.43;;;;;;;;;;10239608;28;20134;-68
2023/07/20 03:49:16;;;;;;;13.73;12.82;;;;;;;;;;10255584;28;20060;-68
2023/07/20 03:54:12;;;;;;;13.65;12.45;;;;;;;;;;10253594;28;20088;-68
2023/07/20 03:59:09;;;;;;;12.88;11.98;;;;;;;;;;10251727;28;20076;-69
2023/07/20 04:04:07;;;;;;;12.85;11.95;;;;;;;;;;10234160;28;20049;-69
2023/07/20 04:09:05;;;;;;;12.15;11.35;;;;;;;;;;10256853;28;20107;-68
2023/07/20 04:14:01;;;;;;;12.73;11.75;;;;;;;;;;10250977;28;20045;-66
2023/07/20 04:18:58;;;;;;;13.25;12.25;;;;;;;;;;10250671;28;20056;-67
2023/07/20 04:23:54;;;;;;;13.50;12.65;;;;;;;;;;10255231;28;20079;-67
2023/07/20 04:28:52;;;;;;;13.68;12.77;;;;;;;;;;10244247;28;20133;-67
2023/07/20 04:33:48;;;;;;;13.18;12.10;;;;;;;;;;10251696;28;20072;-68
2023/07/20 04:38:45;;;;;;;13.85;12.95;;;;;;;;;;10256110;28;20050;-69
2023/07/20 04:43:42;;;;;;;12.98;12.18;;;;;;;;;;10254140;28;20045;-68
2023/07/20 04:48:40;;;;;;;13.07;12.18;;;;;;;;;;10232660;28;20452;-69
2023/07/20 04:53:37;;;;;;;12.65;11.85;;;;;;;;;;10248209;28;20120;-69
2023/07/20 04:58:33;;;;;;;13.48;12.57;;;;;;;;;;10248167;28;20104;-72
2023/07/20 05:03:29;;;;;;;13.25;12.40;;;;;;;;;;10247475;28;20111;-70
2023/07/20 05:08:27;;;;;;;12.07;11.25;;;;;;;;;;10254547;28;20053;-70
2023/07/20 05:13:23;;;;;;;12.80;11.90;;;;;;;;;;10247111;28;20061;-70
2023/07/20 05:18:20;;;;;;;12.45;11.48;;;;;;;;;;10243048;28;20520;-70
2023/07/20 05:23:19;;;;;;;11.52;10.82;;;;;;;;;;10245778;28;20049;-71
2023/07/20 05:28:16;;;;;;;11.50;10.80;;;;;;;;;;10229732;28;20049;-70
2023/07/20 05:33:12;;;;;;;12.10;11.20;;;;;;;;;;10254791;28;20087;-70
2023/07/20 05:38:09;;;;;;;12.18;11.38;;;;;;;;;;10245868;28;20091;-70
2023/07/20 05:43:05;;;;;;;13.23;12.23;;;;;;;;;;10239231;28;20408;-70
2023/07/20 05:48:01;;;;;;;12.88;12.00;;;;;;;;;;10241805;28;20055;-70
2023/07/20 05:52:58;;;;;;;12.35;11.55;;;;;;;;;;10251401;28;20447;-70
2023/07/20 05:57:55;;;;;;;12.95;12.05;;;;;;;;;;10249967;28;20512;-70
2023/07/20 06:02:53;;;;;;;12.32;11.30;;;;;;;;;;10250345;28;20057;-71
2023/07/20 06:07:49;;;;;;;12.38;11.57;;;;;;;;;;10257110;28;20045;-71
2023/07/20 06:12:45;;;;;;;11.38;10.57;;;;;;;;;;10255393;28;20594;-71
2023/07/20 06:17:42;;;;;;;11.73;10.90;;;;;;;;;;10255058;28;20076;-72
2023/07/20 06:22:38;;;;;;;10.60;9.80;;;;;;;;;;10268659;28;20372;-71
2023/07/20 06:27:34;;;;;;;10.00;9.27;;;;;;;;;;10257690;28;20041;-72
2023/07/20 06:32:31;;;;;;;10.45;9.63;;;;;;;;;;10258524;28;20045;-72
2023/07/20 06:37:27;;;;;;;10.30;9.60;;;;;;;;;;10255099;28;20764;-71
2023/07/20 06:42:24;;;;;;;9.43;8.48;;;;;;;;;;10254791;28;20057;-72
2023/07/20 06:47:21;;;;;;;7.80;7.15;;;;;;;;;;10246858;28;20082;-71
2023/07/20 06:52:17;;;;;;;7.40;6.70;;;;;;;;;;10248040;28;20531;-72
2023/07/20 06:57:13;;;;;;;7.22;6.63;;;;;;;;;;10252079;28;20045;-72
2023/07/20 07:02:14;;;;;;;7.20;6.00;;;;;;;;;;10256122;28;20045;-71
2023/07/20 07:07:10;;;;;;;7.07;6.05;;;;;;;;;;10257039;28;20184;-72
2023/07/20 07:12:07;;;;;;;6.47;5.82;;;;;;;;;;10257776;28;20575;-72
2023/07/20 07:17:04;;;;;;;7.38;6.55;;;;;;;;;;10248352;28;20527;-71
2023/07/20 07:22:01;;;;;;;8.98;6.40;;;;;;;;;;10253588;28;20692;-72
2023/07/20 07:26:58;;;;;;;5.75;5.22;;;;;;;;;;10250987;28;20394;-72
2023/07/20 07:31:54;;;;;;;6.82;5.40;;;;;;;;;;10247607;28;20100;-71
2023/07/20 07:36:51;;;;;;;6.43;5.70;;;;;;;;;;10253779;28;20883;-72
2023/07/20 07:41:47;;;;;;;6.57;5.95;;;;;;;;;;10236991;28;20045;-72
2023/07/20 07:46:43;;;;;;;7.60;6.70;;;;;;;;;;10243372;28;20049;-72
2023/07/20 07:51:40;;;;;;;8.68;6.97;;;;;;;;;;10244376;28;20093;-71
2023/07/20 07:56:36;;;;;;;7.53;6.78;;;;;;;;;;10260184;28;20060;-72
2023/07/20 08:01:32;;;;;;;8.43;7.38;;;;;;;;;;10250319;28;20050;-71
2023/07/20 08:06:29;;;;;;;14.07;6.65;;;;;;;;;;10249923;28;20656;-73
2023/07/20 08:11:25;;;;;;;10.00;8.52;;;;;;;;;;10249643;28;20053;-72
2023/07/20 08:16:21;;;;;;;9.52;8.15;;;;;;;;;;10246481;28;20421;-73
2023/07/20 08:21:18;;;;;;;8.65;7.65;;;;;;;;;;10256555;28;20072;-73
2023/07/20 08:26:15;;;;;;;10.43;8.52;;;;;;;;;;10236109;28;20080;-73
2023/07/20 08:31:11;;;;;;;9.27;7.20;;;;;;;;;;10251363;28;20048;-73
2023/07/20 08:36:07;;;;;;;11.98;8.50;;;;;;;;;;10243649;28;20045;-73
2023/07/20 08:41:08;;;;;;;10.00;7.88;;;;;;;;;;10248011;28;20080;-72
2023/07/20 08:46:05;;;;;;;8.25;7.53;;;;;;;;;;10253900;28;20044;-73
2023/07/20 08:51:01;;;;;;;12.90;7.55;;;;;;;;;;10255139;28;20053;-73
2023/07/20 08:55:59;;;;;;;10.32;7.47;;;;;;;;;;10259744;28;20436;-72
2023/07/20 09:00:59;;;;;;;8.60;7.90;;;;;;;;;;10252637;28;20797;-72
2023/07/20 09:05:55;;;;;;;10.95;7.80;;;;;;;;;;10246709;28;20049;-73
2023/07/20 09:10:51;;;;;;;13.57;8.77;;;;;;;;;;10212730;28;1038020;-72
2023/07/20 09:15:52;;;;;;;11.68;8.48;;;;;;;;;;10246381;28;20462;-73
2023/07/20 09:20:49;;;;;;;8.32;7.43;;;;;;;;;;10252522;28;20056;-72
2023/07/20 09:25:50;;;;;;;16.33;7.55;;;;;;;;;;10239769;28;20052;-72
2023/07/20 09:30:46;;;;;;;9.77;7.03;;;;;;;;;;10239775;28;20049;-73
2023/07/20 09:35:49;;;;;;;7.97;6.88;;;;;;;;;;10249901;28;20045;-73
2023/07/20 09:41:04;;;;;;;;;;;;;;;;;;10397224;22;20051;-74
2023/07/20 09:46:40;;;;;;;7.93;7.22;;;;;;;;;;10384244;28;20008;-73
2023/07/20 09:51:39;;;;;;;;;;;;;;;;;;10389467;27;20101;-73
2023/07/20 09:56:36;;;;;;;8.65;5.70;;;;;;;;;;10393504;27;19997;-74
2023/07/20 10:01:34;;;;;;;6.38;5.78;;;;;;;;;;10386404;27;20079;-73
2023/07/20 10:06:32;;;;;;;8.15;6.30;;;;;;;;;;10402170;27;20063;-73
2023/07/20 10:11:31;;;;;;;27.00;8.75;;;;;;;;;;10393450;28;20109;-72
2023/07/20 10:16:29;;;;;;;8.20;6.88;;;;;;;;;;10396259;28;20040;-73
2023/07/20 10:21:25;;;;;;;7.35;6.47;;;;;;;;;;10381253;27;20051;-72
2023/07/20 10:26:25;;;;;;;8.43;6.20;;;;;;;;;;10391744;27;20104;-72
2023/07/20 10:31:23;;;;;;;7.45;6.72;;;;;;;;;;10399009;27;20055;-73
2023/07/20 10:36:27;;;;;;;7.82;6.45;;;;;;;;;;10393884;28;20051;-73
2023/07/20 10:41:28;;;;;;;6.95;5.93;;;;;;;;;;10338252;22;20417;-73
2023/07/20 10:46:33;;;;;;;6.30;5.70;;;;;;;;;;10265830;28;20781;-73
2023/07/20 10:52:16;;;;;;;;;;;;;;;;;;;;;
2023/07/20 11:03:00;;;;;;;9.35;6.47;;;;;;;;;;10242158;28;20045;-73
2023/07/20 11:13:21;;;;;;;7.00;6.30;;;;;;;;;;9957516;26;20044;-74
2023/07/20 11:18:17;;;;;;;6.88;5.82;;;;;;;;;;10356644;28;20556;-74
2023/07/20 11:23:15;;;;;;;6.60;6.07;;;;;;;;;;10351745;28;20647;-73
2023/07/20 11:28:12;;;;;;;6.60;6.15;;;;;;;;;;10376166;28;20098;-72
2023/07/20 11:33:08;;;;;;;6.82;6.13;;;;;;;;;;10376574;28;20113;-72
2023/07/20 11:38:07;;;;;;;6.30;5.80;;;;;;;;;;10370601;28;20300;-72
2023/07/20 11:43:03;;;;;;;6.50;5.90;;;;;;;;;;10346699;28;20056;-71
2023/07/20 11:48:05;;;;;;;6.53;5.97;;;;;;;;;;10349269;28;20055;-72
2023/07/20 11:53:02;;;;;;;14.02;6.47;;;;;;;;;;10360074;28;20089;-71
2023/07/20 11:58:05;;;;;;;7.30;5.30;;;;;;;;;;10357007;28;20086;-72
2023/07/20 12:03:01;;;;;;;6.53;5.53;;;;;;;;;;10357098;28;20121;-71
2023/07/20 12:07:58;;;;;;;6.40;5.80;;;;;;;;;;10361725;28;20044;-72
2023/07/20 12:13:00;;;;;;;6.57;5.85;;;;;;;;;;10369157;27;20044;-72
2023/07/20 12:18:05;;;;;;;7.40;6.30;;;;;;;;;;10398765;27;20047;-72
2023/07/20 12:23:20;;;;;;;8.20;6.40;;;;;;;;;;10379978;28;20051;-70
2023/07/20 12:28:21;;;;;;;7.72;6.97;;;;;;;;;;10374248;27;20058;-70
2023/07/20 12:33:22;;;;;;;6.90;6.30;;;;;;;;;;10405046;27;20133;-70
2023/07/20 12:38:27;;;;;;;7.35;6.07;;;;;;;;;;10387718;28;20059;-71
2023/07/20 12:43:25;;;;;;;7.22;6.50;;;;;;;;;;10390255;27;20055;-71
2023/07/20 12:48:29;;;;;;;8.25;6.35;;;;;;;;;;10398215;27;20054;-71
2023/07/20 12:53:26;;;;;;;8.93;6.10;;;;;;;;;;10399148;27;20100;-71
2023/07/20 12:58:26;;;;;;;9.25;5.45;;;;;;;;;;10401131;27;21021;-71
2023/07/20 13:03:25;;;;;;;6.85;5.38;;;;;;;;;;10387618;28;20047;-71
2023/07/20 13:08:29;;;;;;;8.02;5.68;;;;;;;;;;10394667;28;20035;-72
2023/07/20 13:13:26;;;;;;;8.15;6.65;;;;;;;;;;10389731;28;20059;-71
2023/07/20 13:18:23;;;;;;;6.60;5.82;;;;;;;;;;10398006;27;20151;-71
2023/07/20 13:23:19;;;;;;;6.22;5.72;;;;;;;;;;10388222;27;20094;-72
2023/07/20 13:28:19;;;;;;;6.13;5.40;;;;;;;;;;10410330;27;20089;-71
2023/07/20 13:33:19;;;;;;;5.82;5.28;;;;;;;;;;10385203;27;20039;-71
2023/07/20 13:38:19;;;;;;;6.80;5.88;;;;;;;;;;10404043;27;20039;-71
2023/07/20 13:43:18;;;;;;;6.35;5.50;;;;;;;;;;10401622;27;20054;-71
2023/07/20 13:48:20;;;;;;;7.93;6.45;;;;;;;;;;10393877;27;20071;-72
2023/07/20 13:53:22;;;;;;;6.93;6.28;;;;;;;;;;10396505;27;20506;-71
2023/07/20 13:58:24;;;;;;;7.22;6.50;;;;;;;;;;10369698;27;20553;-71
2023/07/20 14:03:23;;;;;;;7.13;6.40;;;;;;;;;;10410948;27;20086;-72
2023/07/20 14:08:21;;;;;;;7.45;5.72;;;;;;;;;;10397907;27;20117;-71
2023/07/20 14:13:20;;;;;;;7.07;6.00;;;;;;;;;;10406546;27;20106;-71
2023/07/20 14:18:36;;;;;;;6.07;5.57;;;;;;;;;;10402437;27;20059;-71
2023/07/20 14:23:36;;;;;;;6.38;5.78;;;;;;;;;;10391262;28;20047;-70
2023/07/20 14:28:33;;;;;;;6.82;6.13;;;;;;;;;;10408638;27;20096;-71
2023/07/20 14:33:32;;;;;;;6.40;5.90;;;;;;;;;;10391401;27;20051;-72
2023/07/20 14:38:35;;;;;;;6.80;6.20;;;;;;;;;;10385991;27;20048;-71
2023/07/20 14:43:34;;;;;;;6.50;6.00;;;;;;;;;;10403223;27;20399;-72
2023/07/20 14:48:32;;;;;;;5.90;5.50;;;;;;;;;;10403146;27;20047;-71
2023/07/20 14:53:29;;;;;;;17.00;6.00;;;;;;;;;;10375471;27;20047;-72
2023/07/20 14:58:33;;;;;;;;;;;;;;;;;;10396726;27;20047;-71
2023/07/20 15:03:31;;;;;;;7.15;5.90;;;;;;;;;;10406231;27;19929;-71
2023/07/20 15:08:28;;;;;;;6.90;5.70;;;;;;;;;;10405634;27;20055;-71
2023/07/20 15:13:28;;;;;;;6.20;5.65;;;;;;;;;;10394957;27;20157;-72
2023/07/20 15:18:28;;;;;;;5.95;5.45;;;;;;;;;;10377733;27;20052;-72
2023/07/20 15:23:45;;;;;;;6.43;5.55;;;;;;;;;;10396389;27;20059;-70
2023/07/20 15:28:45;;;;;;;10.23;5.72;;;;;;;;;;10379937;27;20051;-71
2023/07/20 15:33:45;;;;;;;6.35;5.75;;;;;;;;;;10390135;27;20089;-71
2023/07/20 15:38:47;;;;;;;6.43;5.78;;;;;;;;;;10394577;27;20047;-71
2023/07/20 15:43:48;;;;;;;6.43;5.35;;;;;;;;;;10393943;27;20036;-72
2023/07/20 15:48:45;;;;;;;6.95;5.35;;;;;;;;;;10372820;27;20048;-72
2023/07/20 15:53:44;;;;;;;5.85;5.32;;;;;;;;;;10390479;27;20058;-72
2023/07/20 15:58:40;;;;;;;6.93;4.90;;;;;;;;;;10394719;27;20595;-72
2023/07/20 16:03:37;;;;;;;8.60;5.57;;;;;;;;;;10393936;27;20048;-72
2023/07/20 16:08:34;;;;;;;14.93;5.80;;;;;;;;;;10392571;27;20051;-71
2023/07/20 16:13:34;;;;;;;7.75;5.78;;;;;;;;;;10398758;27;20051;-72
2023/07/20 16:18:36;;;;;;;9.02;6.28;;;;;;;;;;10408499;27;20064;-72
2023/07/20 16:23:38;;;;;;;8.98;5.40;;;;;;;;;;10399131;27;20039;-71
2023/07/20 16:28:45;;;;;;;6.40;5.40;;;;;;;;;;10392564;27;20050;-72
2023/07/20 16:33:44;;;;;;;6.95;5.70;;;;;;;;;;10396471;27;20050;-72
2023/07/20 16:38:45;;;;;;;6.73;5.60;;;;;;;;;;10388669;28;20046;-72
2023/07/20 16:43:42;;;;;;;6.35;5.75;;;;;;;;;;10395088;27;20096;-72
2023/07/20 16:48:47;;;;;;;8.30;6.05;;;;;;;;;;10438448;22;20053;-72
2023/07/20 16:53:52;;;;;;;6.85;6.25;;;;;;;;;;10305384;28;20051;-72
2023/07/20 16:58:49;;;;;;;9.98;5.95;;;;;;;;;;10301716;28;20136;-72
2023/07/20 17:03:50;;;;;;;8.00;7.15;;;;;;;;;;10285487;28;20153;-72
2023/07/20 17:09:05;;;;;;;;;;;;;;;;;;;;;
2023/07/20 17:14:25;;;;;;;6.47;5.25;;;;;;;;;;10283005;28;20063;-71
2023/07/20 17:19:22;;;;;;;7.70;5.20;;;;;;;;;;10286089;28;20443;-70
2023/07/20 17:24:28;;;;;;;8.43;5.70;;;;;;;;;;10295302;28;20077;-70
2023/07/20 17:29:27;;;;;;;6.03;5.20;;;;;;;;;;10290856;28;20045;-70
2023/07/20 17:34:24;;;;;;;6.47;5.15;;;;;;;;;;10302204;28;20068;-70
2023/07/20 17:39:20;;;;;;;6.68;5.20;;;;;;;;;;10347291;22;20079;-70
2023/07/20 17:44:17;;;;;;;6.75;5.65;;;;;;;;;;10260624;28;20048;-70
2023/07/20 17:49:14;;;;;;;7.20;5.97;;;;;;;;;;10273435;28;20471;-70
2023/07/20 17:54:10;;;;;;;16.80;6.28;;;;;;;;;;10268777;28;20048;-70
2023/07/20 17:59:08;;;;;;;13.32;5.95;;;;;;;;;;10297786;23;20045;-71
2023/07/20 18:04:04;;;;;;;7.40;4.95;;;;;;;;;;10318983;28;20111;-71
2023/07/20 18:09:07;;;;;;;6.90;5.00;;;;;;;;;;10291675;28;20059;-71
2023/07/20 18:14:03;;;;;;;9.98;5.00;;;;;;;;;;10315558;28;20133;-71
2023/07/20 18:19:03;;;;;;;7.18;5.22;;;;;;;;;;10323759;28;20522;-71
2023/07/20 18:24:00;;;;;;;8.02;5.38;;;;;;;;;;10314141;28;20428;-71
2023/07/20 18:28:56;;;;;;;6.53;5.00;;;;;;;;;;10318056;28;20483;-72
2023/07/20 18:33:54;;;;;;;10.40;5.15;;;;;;;;;;10314675;28;20045;-72
2023/07/20 18:38:50;;;;;;;6.82;4.35;;;;;;;;;;10316252;28;20040;-71
2023/07/20 18:43:46;;;;;;;9.70;5.03;;;;;;;;;;10315995;28;20460;-72
2023/07/20 18:48:44;;;;;;;5.90;4.75;;;;;;;;;;10310285;28;20040;-72
2023/07/20 18:53:44;;;;;;;5.65;4.82;;;;;;;;;;10305464;28;20411;-71
2023/07/20 18:58:40;;;;;;;6.55;5.50;;;;;;;;;;10312534;28;20044;-71
2023/07/20 19:03:36;;;;;;;8.32;5.03;;;;;;;;;;10295704;28;20056;-71
2023/07/20 19:08:33;;;;;;;6.70;4.93;;;;;;;;;;10304697;28;20079;-71
2023/07/20 19:13:30;;;;;;;5.82;4.47;;;;;;;;;;10303789;28;20052;-71
2023/07/20 19:18:27;;;;;;;7.72;4.53;;;;;;;;;;10308737;28;20056;-71
2023/07/20 19:23:23;;;;;;;5.18;4.03;;;;;;;;;;10305352;28;20060;-72
2023/07/20 19:28:20;;;;;;;5.97;5.13;;;;;;;;;;10301524;28;20068;-71
2023/07/20 19:33:18;;;;;;;9.68;5.72;;;;;;;;;;10308612;28;20102;-71
2023/07/20 19:38:22;;;;;;;8.63;4.70;;;;;;;;;;10301912;28;20327;-71
2023/07/20 19:43:24;;;;;;;10.27;6.53;;;;;;;;;;10309489;28;20048;-71
2023/07/20 19:48:20;;;;;;;6.90;4.88;;;;;;;;;;10279846;28;20071;-72
2023/07/20 19:53:17;;;;;;;9.27;6.70;;;;;;;;;;10311227;28;20135;-72
2023/07/20 19:58:17;;;;;;;6.25;4.75;;;;;;;;;;10316459;22;20654;-72
2023/07/20 20:03:13;;;;;;;5.15;4.65;;;;;;;;;;10295163;28;20566;-72
2023/07/20 20:08:14;;;;;;;5.65;5.00;;;;;;;;;;10308022;28;20044;-71
2023/07/20 20:13:13;;;;;;;9.13;5.65;;;;;;;;;;10299349;28;20040;-71
2023/07/20 20:18:09;;;;;;;8.02;6.28;;;;;;;;;;10301830;28;20081;-70
2023/07/20 20:23:13;;;;;;;8.30;5.75;;;;;;;;;;10290160;28;20049;-68
2023/07/20 20:28:10;;;;;;;7.28;5.18;;;;;;;;;;10300367;28;20080;-67
2023/07/20 20:33:06;;;;;;;5.80;5.22;;;;;;;;;;10304177;28;20421;-68
2023/07/20 20:38:03;;;;;;;5.22;4.72;;;;;;;;;;10303607;28;20115;-67
2023/07/20 20:42:59;;;;;;;6.00;5.25;;;;;;;;;;10301415;28;20138;-68
2023/07/20 20:47:59;;;;;;;7.38;5.47;;;;;;;;;;10293027;28;20091;-67
2023/07/20 20:52:58;;;;;;;5.22;4.35;;;;;;;;;;10305993;28;20126;-67
2023/07/20 20:57:54;;;;;;;7.45;4.82;;;;;;;;;;10304238;28;20067;-68
2023/07/20 21:02:55;;;;;;;60.45;31.20;;;;;;;;;;10347942;28;20055;-68
2023/07/20 21:07:54;;;;;;;7.25;5.70;;;;;;;;;;10344194;28;20415;-67
2023/07/20 21:12:54;;;;;;;6.43;4.80;;;;;;;;;;10345470;28;20056;-68
2023/07/20 21:17:50;;;;;;;8.35;4.53;;;;;;;;;;10348193;28;20048;-68
2023/07/20 21:22:46;;;;;;;5.15;4.50;;;;;;;;;;10345858;28;20101;-70
2023/07/20 21:27:46;;;;;;;8.30;4.53;;;;;;;;;;10335125;28;20052;-70
2023/07/20 21:32:43;;;;;;;6.30;5.10;;;;;;;;;;10351338;28;20048;-68
2023/07/20 21:37:42;;;;;;;8.27;4.63;;;;;;;;;;10349643;28;20052;-68
2023/07/20 21:42:39;;;;;;;6.93;4.32;;;;;;;;;;10354473;28;20078;-69
2023/07/20 21:47:35;;;;;;;5.78;5.00;;;;;;;;;;10361528;28;20441;-69
2023/07/20 21:52:32;;;;;;;7.00;4.70;;;;;;;;;;10357169;28;20283;-68
2023/07/20 21:57:28;;;;;;;5.35;4.88;;;;;;;;;;10349461;28;20051;-69
2023/07/20 22:02:24;;;;;;;7.55;5.38;;;;;;;;;;10335179;28;20487;-70
2023/07/20 22:07:23;;;;;;;6.35;4.85;;;;;;;;;;10350818;28;20056;-69
2023/07/20 22:12:19;;;;;;;6.15;4.60;;;;;;;;;;10355477;28;20106;-69
2023/07/20 22:17:16;;;;;;;7.10;5.47;;;;;;;;;;10349766;28;20059;-68
2023/07/20 22:22:14;;;;;;;5.35;4.90;;;;;;;;;;10357162;27;20503;-67
2023/07/20 22:27:10;;;;;;;6.70;4.82;;;;;;;;;;10346209;28;20069;-67
2023/07/20 22:32:07;;;;;;;5.80;5.20;;;;;;;;;;10350330;28;20133;-67
2023/07/20 22:37:04;;;;;;;5.30;4.80;;;;;;;;;;10348599;28;20048;-68
2023/07/20 22:42:02;;;;;;;5.57;5.03;;;;;;;;;;10350821;28;20592;-67
2023/07/20 22:46:58;;;;;;;5.72;4.63;;;;;;;;;;10344187;28;20071;-67
2023/07/20 22:51:55;;;;;;;6.30;5.13;;;;;;;;;;10354470;28;20135;-68
2023/07/20 22:56:51;;;;;;;7.80;5.47;;;;;;;;;;10346858;28;20051;-68
2023/07/20 23:01:48;;;;;;;6.82;5.10;;;;;;;;;;10354219;28;20079;-67
2023/07/20 23:06:44;;;;;;;13.75;6.78;;;;;;;;;;10350689;28;20085;-67
2023/07/20 23:11:40;;;;;;;7.32;5.47;;;;;;;;;;10354760;27;20058;-68
2023/07/20 23:16:37;;;;;;;53.25;23.77;;;;;;;;;;10341211;28;20043;-68
2023/07/20 23:21:33;;;;;;;20.77;11.75;;;;;;;;;;10356855;28;20101;-68
2023/07/20 23:26:30;;;;;;;19.02;11.13;;;;;;;;;;10349020;28;20071;-67
2023/07/20 23:31:27;;;;;;;8.52;6.55;;;;;;;;;;10345657;28;20113;-68
2023/07/20 23:36:23;;;;;;;6.32;5.32;;;;;;;;;;10352380;28;20046;-68
2023/07/20 23:41:20;;;;;;;6.40;5.20;;;;;;;;;;10350471;28;20048;-68
2023/07/20 23:46:22;;;;;;;6.38;5.40;;;;;;;;;;10337662;28;20554;-69
2023/07/20 23:51:19;;;;;;;7.30;5.47;;;;;;;;;;10333860;28;20154;-68
2023/07/20 23:56:16;;;;;;;11.10;7.35;;;;;;;;;;10345221;28;20416;-69
